sensor_id;sensor_type;location;lat;lon;timestamp;pressure;altitude;pressure_sealevel;temperature;humidity
64876;BME280;51369;49.862;9.908;2023-07-29T00:00:19;97827.59;;;19.62;84.71
64876;BME280;51369;49.862;9.908;2023-07-29T00:02:45;97823.25;;;19.59;84.76
64876;BME280;51369;49.862;9.908;2023-07-29T00:05:11;97825.41;;;19.56;84.82
64876;BME280;51369;49.862;9.908;2023-07-29T00:07:36;97820.19;;;19.53;84.76
64876;BME280;51369;49.862;9.908;2023-07-29T00:10:02;97821.56;;;19.47;84.37
64876;BME280;51369;49.862;9.908;2023-07-29T00:12:28;97816.50;;;19.42;84.47
64876;BME280;51369;49.862;9.908;2023-07-29T00:14:54;97819.50;;;19.39;84.15
64876;BME280;51369;49.862;9.908;2023-07-29T00:17:19;97825.97;;;19.38;84.94
64876;BME280;51369;49.862;9.908;2023-07-29T00:19:46;97818.91;;;19.36;85.68
64876;BME280;51369;49.862;9.908;2023-07-29T00:22:11;97822.63;;;19.35;85.44
64876;BME280;51369;49.862;9.908;2023-07-29T00:24:37;97821.91;;;19.33;85.99
64876;BME280;51369;49.862;9.908;2023-07-29T00:27:03;97825.78;;;19.30;86.08
64876;BME280;51369;49.862;9.908;2023-07-29T00:29:29;97820.28;;;19.30;86.30
64876;BME280;51369;49.862;9.908;2023-07-29T00:31:54;97825.91;;;19.29;85.96
64876;BME280;51369;49.862;9.908;2023-07-29T00:34:19;97837.00;;;19.27;86.22
64876;BME280;51369;49.862;9.908;2023-07-29T00:36:45;97833.50;;;19.25;86.24
64876;BME280;51369;49.862;9.908;2023-07-29T00:39:11;97819.84;;;19.25;86.19
64876;BME280;51369;49.862;9.908;2023-07-29T00:41:37;97826.31;;;19.24;86.29
64876;BME280;51369;49.862;9.908;2023-07-29T00:44:02;97820.84;;;19.24;86.08
64876;BME280;51369;49.862;9.908;2023-07-29T00:46:29;97824.56;;;19.23;86.20
64876;BME280;51369;49.862;9.908;2023-07-29T00:48:56;97825.44;;;19.24;86.00
64876;BME280;51369;49.862;9.908;2023-07-29T00:51:23;97816.34;;;19.23;86.20
64876;BME280;51369;49.862;9.908;2023-07-29T00:53:48;97810.88;;;19.23;85.97
64876;BME280;51369;49.862;9.908;2023-07-29T00:56:13;97810.88;;;19.23;86.96
64876;BME280;51369;49.862;9.908;2023-07-29T00:58:39;97811.88;;;19.22;86.68
64876;BME280;51369;49.862;9.908;2023-07-29T01:01:04;97820.09;;;19.22;86.34
64876;BME280;51369;49.862;9.908;2023-07-29T01:03:30;97821.97;;;19.22;86.41
64876;BME280;51369;49.862;9.908;2023-07-29T01:06:08;97823.97;;;19.19;86.59
64876;BME280;51369;49.862;9.908;2023-07-29T01:08:55;97821.22;;;19.19;85.87
64876;BME280;51369;49.862;9.908;2023-07-29T01:11:33;97816.63;;;19.20;86.61
64876;BME280;51369;49.862;9.908;2023-07-29T01:14:26;97813.88;;;19.20;86.57
64876;BME280;51369;49.862;9.908;2023-07-29T01:17:00;97812.75;;;19.23;87.01
64876;BME280;51369;49.862;9.908;2023-07-29T01:19:41;97809.75;;;19.26;87.65
64876;BME280;51369;49.862;9.908;2023-07-29T01:22:07;97803.28;;;19.27;87.49
64876;BME280;51369;49.862;9.908;2023-07-29T01:24:33;97805.00;;;19.28;86.69
64876;BME280;51369;49.862;9.908;2023-07-29T01:27:00;97794.94;;;19.28;87.29
64876;BME280;51369;49.862;9.908;2023-07-29T01:29:27;97777.50;;;19.29;87.34
64876;BME280;51369;49.862;9.908;2023-07-29T01:31:56;97783.84;;;19.30;87.23
64876;BME280;51369;49.862;9.908;2023-07-29T01:34:35;97790.19;;;19.30;87.99
64876;BME280;51369;49.862;9.908;2023-07-29T01:37:07;97791.94;;;19.31;87.85
64876;BME280;51369;49.862;9.908;2023-07-29T01:39:37;97778.25;;;19.31;87.87
64876;BME280;51369;49.862;9.908;2023-07-29T01:42:04;97791.06;;;19.31;87.93
64876;BME280;51369;49.862;9.908;2023-07-29T01:44:29;97786.44;;;19.31;88.16
64876;BME280;51369;49.862;9.908;2023-07-29T01:46:56;97782.13;;;19.29;87.69
64876;BME280;51369;49.862;9.908;2023-07-29T01:49:21;97782.25;;;19.27;87.35
64876;BME280;51369;49.862;9.908;2023-07-29T01:51:47;97785.97;;;19.26;87.75
64876;BME280;51369;49.862;9.908;2023-07-29T01:54:13;97771.56;;;19.24;87.94
64876;BME280;51369;49.862;9.908;2023-07-29T01:56:38;97771.56;;;19.24;87.91
64876;BME280;51369;49.862;9.908;2023-07-29T01:59:03;97772.56;;;19.23;88.12
64876;BME280;51369;49.862;9.908;2023-07-29T02:01:29;97762.63;;;19.22;88.40
64876;BME280;51369;49.862;9.908;2023-07-29T02:03:56;97775.44;;;19.22;88.81
64876;BME280;51369;49.862;9.908;2023-07-29T02:06:21;97774.56;;;19.21;88.53
64876;BME280;51369;49.862;9.908;2023-07-29T02:08:47;97762.75;;;19.21;88.64
64876;BME280;51369;49.862;9.908;2023-07-29T02:11:12;97761.88;;;19.20;88.49
64876;BME280;51369;49.862;9.908;2023-07-29T02:13:37;97771.97;;;19.19;87.90
64876;BME280;51369;49.862;9.908;2023-07-29T02:16:03;97773.84;;;19.19;88.12
64876;BME280;51369;49.862;9.908;2023-07-29T02:18:28;97764.91;;;19.17;87.91
64876;BME280;51369;49.862;9.908;2023-07-29T02:20:54;97753.09;;;19.16;88.26
64876;BME280;51369;49.862;9.908;2023-07-29T02:23:19;97758.56;;;19.16;88.58
64876;BME280;51369;49.862;9.908;2023-07-29T02:25:45;97752.22;;;19.16;88.86
64876;BME280;51369;49.862;9.908;2023-07-29T02:28:10;97752.94;;;19.18;89.19
64876;BME280;51369;49.862;9.908;2023-07-29T02:30:41;97756.56;;;19.18;88.98
64876;BME280;51369;49.862;9.908;2023-07-29T02:33:06;97753.81;;;19.18;88.97
64876;BME280;51369;49.862;9.908;2023-07-29T02:35:32;97741.88;;;19.19;88.67
64876;BME280;51369;49.862;9.908;2023-07-29T02:37:57;97741.88;;;19.19;88.32
64876;BME280;51369;49.862;9.908;2023-07-29T02:40:23;97742.72;;;19.20;88.44
64876;BME280;51369;49.862;9.908;2023-07-29T02:42:51;97746.47;;;19.19;87.74
64876;BME280;51369;49.862;9.908;2023-07-29T02:45:17;97748.22;;;19.20;87.62
64876;BME280;51369;49.862;9.908;2023-07-29T02:47:42;97742.72;;;19.20;87.20
64876;BME280;51369;49.862;9.908;2023-07-29T02:50:07;97754.69;;;19.19;87.33
64876;BME280;51369;49.862;9.908;2023-07-29T02:52:33;97744.75;;;19.18;87.66
64876;BME280;51369;49.862;9.908;2023-07-29T02:54:58;97742.00;;;19.18;87.55
64876;BME280;51369;49.862;9.908;2023-07-29T02:57:24;97739.25;;;19.18;87.54
64876;BME280;51369;49.862;9.908;2023-07-29T02:59:49;97743.00;;;19.17;87.68
64876;BME280;51369;49.862;9.908;2023-07-29T03:02:14;97730.31;;;19.16;87.92
64876;BME280;51369;49.862;9.908;2023-07-29T03:04:41;97730.31;;;19.16;87.60
64876;BME280;51369;49.862;9.908;2023-07-29T03:07:07;97731.47;;;19.13;87.63
64876;BME280;51369;49.862;9.908;2023-07-29T03:09:32;97734.06;;;19.15;88.10
64876;BME280;51369;49.862;9.908;2023-07-29T03:11:58;97731.31;;;19.15;87.76
64876;BME280;51369;49.862;9.908;2023-07-29T03:14:24;97733.06;;;19.16;87.53
64876;BME280;51369;49.862;9.908;2023-07-29T03:16:49;97737.53;;;19.17;88.25
64876;BME280;51369;49.862;9.908;2023-07-29T03:19:15;97735.78;;;19.16;88.08
64876;BME280;51369;49.862;9.908;2023-07-29T03:21:40;97739.53;;;19.15;87.83
64876;BME280;51369;49.862;9.908;2023-07-29T03:24:06;97743.13;;;19.15;88.67
64876;BME280;51369;49.862;9.908;2023-07-29T03:26:32;97752.34;;;19.14;88.55
64876;BME280;51369;49.862;9.908;2023-07-29T03:28:58;97748.75;;;19.14;88.93
64876;BME280;51369;49.862;9.908;2023-07-29T03:31:24;97746.13;;;19.12;89.22
64876;BME280;51369;49.862;9.908;2023-07-29T03:33:49;97752.47;;;19.13;89.33
64876;BME280;51369;49.862;9.908;2023-07-29T03:36:14;97745.16;;;19.13;90.06
64876;BME280;51369;49.862;9.908;2023-07-29T03:38:40;97738.81;;;19.13;90.06
64876;BME280;51369;49.862;9.908;2023-07-29T03:41:09;97730.59;;;19.13;90.51
64876;BME280;51369;49.862;9.908;2023-07-29T03:43:34;97719.66;;;19.13;90.45
64876;BME280;51369;49.862;9.908;2023-07-29T03:46:01;97717.91;;;19.12;90.85
64876;BME280;51369;49.862;9.908;2023-07-29T03:48:26;97710.72;;;19.11;90.87
64876;BME280;51369;49.862;9.908;2023-07-29T03:50:52;97708.09;;;19.09;91.14
64876;BME280;51369;49.862;9.908;2023-07-29T03:53:17;97709.97;;;19.09;91.01
64876;BME280;51369;49.862;9.908;2023-07-29T03:55:43;97700.03;;;19.08;91.07
64876;BME280;51369;49.862;9.908;2023-07-29T03:58:08;97695.56;;;19.07;91.69
64876;BME280;51369;49.862;9.908;2023-07-29T04:00:33;97695.72;;;19.05;91.16
64876;BME280;51369;49.862;9.908;2023-07-29T04:02:59;97696.59;;;19.06;91.85
64876;BME280;51369;49.862;9.908;2023-07-29T04:05:24;97703.63;;;19.08;92.35
64876;BME280;51369;49.862;9.908;2023-07-29T04:07:50;97700.91;;;19.08;91.95
64876;BME280;51369;49.862;9.908;2023-07-29T04:10:16;97708.09;;;19.09;91.87
64876;BME280;51369;49.862;9.908;2023-07-29T04:12:43;97706.22;;;19.10;92.26
64876;BME280;51369;49.862;9.908;2023-07-29T04:15:08;97697.91;;;19.11;92.29
64876;BME280;51369;49.862;9.908;2023-07-29T04:17:34;97683.22;;;19.12;92.83
64876;BME280;51369;49.862;9.908;2023-07-29T04:19:59;97676.59;;;19.15;92.79
64876;BME280;51369;49.862;9.908;2023-07-29T04:22:31;97685.66;;;19.15;93.11
64876;BME280;51369;49.862;9.908;2023-07-29T04:24:56;97685.66;;;19.15;92.55
64876;BME280;51369;49.862;9.908;2023-07-29T04:27:21;97678.34;;;19.16;92.16
64876;BME280;51369;49.862;9.908;2023-07-29T04:29:47;97665.66;;;19.15;92.24
64876;BME280;51369;49.862;9.908;2023-07-29T04:32:12;97679.19;;;19.16;92.47
64876;BME280;51369;49.862;9.908;2023-07-29T04:34:41;97665.50;;;19.16;92.26
64876;BME280;51369;49.862;9.908;2023-07-29T04:37:06;97668.25;;;19.16;92.03
64876;BME280;51369;49.862;9.908;2023-07-29T04:39:32;97667.25;;;19.17;91.75
64876;BME280;51369;49.862;9.908;2023-07-29T04:41:58;97676.31;;;19.18;92.37
64876;BME280;51369;49.862;9.908;2023-07-29T04:44:24;97690.00;;;19.18;92.29
64876;BME280;51369;49.862;9.908;2023-07-29T04:46:49;97685.41;;;19.18;91.80
64876;BME280;51369;49.862;9.908;2023-07-29T04:49:15;97687.13;;;19.19;91.95
64876;BME280;51369;49.862;9.908;2023-07-29T04:51:40;97677.94;;;19.21;92.11
64876;BME280;51369;49.862;9.908;2023-07-29T04:54:05;97682.25;;;19.23;92.44
64876;BME280;51369;49.862;9.908;2023-07-29T04:56:31;97678.38;;;19.26;92.73
64876;BME280;51369;49.862;9.908;2023-07-29T04:58:56;97663.56;;;19.28;92.99
64876;BME280;51369;49.862;9.908;2023-07-29T05:01:22;97658.81;;;19.30;92.64
64876;BME280;51369;49.862;9.908;2023-07-29T05:03:47;97665.88;;;19.33;92.56
64876;BME280;51369;49.862;9.908;2023-07-29T05:06:13;97669.34;;;19.35;92.52
64876;BME280;51369;49.862;9.908;2023-07-29T05:08:39;97671.94;;;19.36;93.05
64876;BME280;51369;49.862;9.908;2023-07-29T05:11:05;97686.38;;;19.38;92.39
64876;BME280;51369;49.862;9.908;2023-07-29T05:13:31;97689.69;;;19.42;93.00
64876;BME280;51369;49.862;9.908;2023-07-29T05:15:56;97682.22;;;19.44;92.33
64876;BME280;51369;49.862;9.908;2023-07-29T05:18:22;97680.34;;;19.44;92.99
64876;BME280;51369;49.862;9.908;2023-07-29T05:20:48;97680.06;;;19.47;92.62
64876;BME280;51369;49.862;9.908;2023-07-29T05:23:14;97677.91;;;19.51;93.18
64876;BME280;51369;49.862;9.908;2023-07-29T05:25:39;97668.59;;;19.54;93.06
64876;BME280;51369;49.862;9.908;2023-07-29T05:28:05;97675.53;;;19.58;93.14
64876;BME280;51369;49.862;9.908;2023-07-29T05:30:32;97678.00;;;19.61;93.50
64876;BME280;51369;49.862;9.908;2023-07-29T05:33:00;97671.38;;;19.63;93.12
64876;BME280;51369;49.862;9.908;2023-07-29T05:35:25;97673.84;;;19.66;93.10
64876;BME280;51369;49.862;9.908;2023-07-29T05:37:51;97679.16;;;19.68;92.62
64876;BME280;51369;49.862;9.908;2023-07-29T05:40:16;97687.09;;;19.71;92.56
64876;BME280;51369;49.862;9.908;2023-07-29T05:42:43;97679.75;;;19.71;92.29
64876;BME280;51369;49.862;9.908;2023-07-29T05:45:10;97689.56;;;19.74;91.99
64876;BME280;51369;49.862;9.908;2023-07-29T05:47:36;97688.56;;;19.75;91.93
64876;BME280;51369;49.862;9.908;2023-07-29T05:50:02;97693.03;;;19.76;91.54
64876;BME280;51369;49.862;9.908;2023-07-29T05:52:30;97705.59;;;19.78;91.49
64876;BME280;51369;49.862;9.908;2023-07-29T05:54:55;97715.41;;;19.81;92.09
64876;BME280;51369;49.862;9.908;2023-07-29T05:57:21;97720.59;;;19.84;91.99
64876;BME280;51369;49.862;9.908;2023-07-29T05:59:46;97726.66;;;19.88;92.10
64876;BME280;51369;49.862;9.908;2023-07-29T06:02:12;97731.00;;;19.90;91.59
64876;BME280;51369;49.862;9.908;2023-07-29T06:04:37;97731.72;;;19.92;91.44
64876;BME280;51369;49.862;9.908;2023-07-29T06:07:03;97738.94;;;19.93;91.64
64876;BME280;51369;49.862;9.908;2023-07-29T06:09:28;97735.06;;;19.96;91.19
64876;BME280;51369;49.862;9.908;2023-07-29T06:11:54;97731.31;;;19.97;90.84
64876;BME280;51369;49.862;9.908;2023-07-29T06:14:19;97731.03;;;20.00;91.26
64876;BME280;51369;49.862;9.908;2023-07-29T06:16:46;97733.63;;;20.01;90.80
64876;BME280;51369;49.862;9.908;2023-07-29T06:19:11;97737.09;;;20.03;91.58
64876;BME280;51369;49.862;9.908;2023-07-29T06:21:38;97732.63;;;20.02;91.59
64876;BME280;51369;49.862;9.908;2023-07-29T06:24:04;97742.56;;;20.03;90.98
64876;BME280;51369;49.862;9.908;2023-07-29T06:26:30;97737.09;;;20.03;90.85
64876;BME280;51369;49.862;9.908;2023-07-29T06:28:55;97734.34;;;20.03;90.91
64876;BME280;51369;49.862;9.908;2023-07-29T06:31:20;97728.00;;;20.03;90.88
64876;BME280;51369;49.862;9.908;2023-07-29T06:33:46;97730.75;;;20.03;90.71
64876;BME280;51369;49.862;9.908;2023-07-29T06:36:11;97728.88;;;20.03;90.64
64876;BME280;51369;49.862;9.908;2023-07-29T06:38:37;97722.41;;;20.04;90.43
64876;BME280;51369;49.862;9.908;2023-07-29T06:41:04;97705.81;;;20.06;90.89
64876;BME280;51369;49.862;9.908;2023-07-29T06:43:29;97701.06;;;20.08;91.10
64876;BME280;51369;49.862;9.908;2023-07-29T06:45:54;97703.66;;;20.09;91.35
64876;BME280;51369;49.862;9.908;2023-07-29T06:48:20;97701.63;;;20.11;91.40
64876;BME280;51369;49.862;9.908;2023-07-29T06:50:46;97730.78;;;20.12;91.09
64876;BME280;51369;49.862;9.908;2023-07-29T06:53:11;97724.28;;;20.13;90.93
64876;BME280;51369;49.862;9.908;2023-07-29T06:55:37;97714.19;;;20.14;90.79
64876;BME280;51369;49.862;9.908;2023-07-29T06:58:02;97709.56;;;20.14;90.79
64876;BME280;51369;49.862;9.908;2023-07-29T07:00:28;97708.56;;;20.15;91.07
64876;BME280;51369;49.862;9.908;2023-07-29T07:02:53;97712.03;;;20.18;91.69
64876;BME280;51369;49.862;9.908;2023-07-29T07:05:18;97722.00;;;20.19;91.15
64876;BME280;51369;49.862;9.908;2023-07-29T07:07:44;97742.03;;;20.19;91.86
64876;BME280;51369;49.862;9.908;2023-07-29T07:10:09;97741.03;;;20.20;91.22
64876;BME280;51369;49.862;9.908;2023-07-29T07:12:35;97719.97;;;20.21;91.41
64876;BME280;51369;49.862;9.908;2023-07-29T07:15:00;97728.19;;;20.21;91.43
64876;BME280;51369;49.862;9.908;2023-07-29T07:17:26;97722.84;;;20.19;91.19
64876;BME280;51369;49.862;9.908;2023-07-29T07:19:51;97737.72;;;20.17;91.03
64876;BME280;51369;49.862;9.908;2023-07-29T07:22:16;97728.75;;;20.14;90.96
64876;BME280;51369;49.862;9.908;2023-07-29T07:24:42;97722.56;;;20.12;91.26
64876;BME280;51369;49.862;9.908;2023-07-29T07:27:07;97722.69;;;20.11;91.53
64876;BME280;51369;49.862;9.908;2023-07-29T07:29:33;97707.25;;;20.10;91.60
64876;BME280;51369;49.862;9.908;2023-07-29T07:31:58;97715.63;;;20.08;91.27
64876;BME280;51369;49.862;9.908;2023-07-29T07:34:24;97712.59;;;20.11;92.23
64876;BME280;51369;49.862;9.908;2023-07-29T07:36:50;97708.72;;;20.14;92.75
64876;BME280;51369;49.862;9.908;2023-07-29T07:39:15;97692.84;;;20.18;92.90
64876;BME280;51369;49.862;9.908;2023-07-29T07:41:41;97697.75;;;20.24;93.26
64876;BME280;51369;49.862;9.908;2023-07-29T07:44:07;97698.19;;;20.29;93.49
64876;BME280;51369;49.862;9.908;2023-07-29T07:46:32;97712.34;;;20.34;93.63
64876;BME280;51369;49.862;9.908;2023-07-29T07:48:58;97710.94;;;20.39;93.67
64876;BME280;51369;49.862;9.908;2023-07-29T07:51:24;97706.91;;;20.43;93.07
64876;BME280;51369;49.862;9.908;2023-07-29T07:53:49;97702.00;;;20.47;92.96
64876;BME280;51369;49.862;9.908;2023-07-29T07:56:15;97701.56;;;20.52;93.03
64876;BME280;51369;49.862;9.908;2023-07-29T07:58:40;97700.00;;;20.59;93.06
64876;BME280;51369;49.862;9.908;2023-07-29T08:01:07;97702.31;;;20.63;92.72
64876;BME280;51369;49.862;9.908;2023-07-29T08:03:33;97705.34;;;20.70;93.02
64876;BME280;51369;49.862;9.908;2023-07-29T08:05:58;97698.25;;;20.77;93.00
64876;BME280;51369;49.862;9.908;2023-07-29T08:08:25;97701.38;;;20.82;92.52
64876;BME280;51369;49.862;9.908;2023-07-29T08:10:52;97697.34;;;20.86;91.89
64876;BME280;51369;49.862;9.908;2023-07-29T08:13:18;97705.13;;;20.91;90.75
64876;BME280;51369;49.862;9.908;2023-07-29T08:15:48;97719.28;;;20.96;91.20
64876;BME280;51369;49.862;9.908;2023-07-29T08:18:14;97725.34;;;20.99;91.15
64876;BME280;51369;49.862;9.908;2023-07-29T08:20:40;97729.97;;;20.99;90.50
64876;BME280;51369;49.862;9.908;2023-07-29T08:23:06;97737.19;;;21.00;89.79
64876;BME280;51369;49.862;9.908;2023-07-29T08:25:31;97739.06;;;20.99;89.65
64876;BME280;51369;49.862;9.908;2023-07-29T08:27:57;97752.78;;;20.99;89.12
64876;BME280;51369;49.862;9.908;2023-07-29T08:30:22;97756.13;;;20.93;87.27
64876;BME280;51369;49.862;9.908;2023-07-29T08:32:48;97737.63;;;20.86;87.19
64876;BME280;51369;49.862;9.908;2023-07-29T08:35:13;97743.00;;;20.77;86.57
64876;BME280;51369;49.862;9.908;2023-07-29T08:37:39;97734.78;;;20.68;84.90
64876;BME280;51369;49.862;9.908;2023-07-29T08:40:05;97757.44;;;20.60;85.97
64876;BME280;51369;49.862;9.908;2023-07-29T08:42:32;97759.75;;;20.55;87.36
64876;BME280;51369;49.862;9.908;2023-07-29T08:45:01;97735.50;;;20.51;88.13
64876;BME280;51369;49.862;9.908;2023-07-29T08:47:31;97722.94;;;20.48;89.41
64876;BME280;51369;49.862;9.908;2023-07-29T08:49:57;97722.06;;;20.48;90.41
64876;BME280;51369;49.862;9.908;2023-07-29T08:52:24;97731.75;;;20.52;91.25
64876;BME280;51369;49.862;9.908;2023-07-29T08:54:51;97726.41;;;20.60;92.55
64876;BME280;51369;49.862;9.908;2023-07-29T08:57:18;97722.81;;;20.69;93.19
64876;BME280;51369;49.862;9.908;2023-07-29T08:59:45;97737.78;;;20.84;94.35
64876;BME280;51369;49.862;9.908;2023-07-29T09:02:10;97738.06;;;21.00;95.06
64876;BME280;51369;49.862;9.908;2023-07-29T09:04:36;97745.56;;;21.18;95.99
64876;BME280;51369;49.862;9.908;2023-07-29T09:07:01;97752.50;;;21.31;96.23
64876;BME280;51369;49.862;9.908;2023-07-29T09:09:27;97760.72;;;21.41;95.92
64876;BME280;51369;49.862;9.908;2023-07-29T09:11:53;97742.78;;;21.47;95.76
64876;BME280;51369;49.862;9.908;2023-07-29T09:14:19;97740.00;;;21.56;95.74
64876;BME280;51369;49.862;9.908;2023-07-29T09:16:45;97745.47;;;21.66;95.73
64876;BME280;51369;49.862;9.908;2023-07-29T09:19:11;97734.44;;;21.75;95.56
64876;BME280;51369;49.862;9.908;2023-07-29T09:21:39;97736.44;;;21.83;95.25
64876;BME280;51369;49.862;9.908;2023-07-29T09:24:04;97735.09;;;21.87;94.47
64876;BME280;51369;49.862;9.908;2023-07-29T09:26:30;97734.66;;;21.92;93.84
64876;BME280;51369;49.862;9.908;2023-07-29T09:28:57;97738.97;;;21.94;93.14
64876;BME280;51369;49.862;9.908;2023-07-29T09:31:26;97733.34;;;21.96;91.86
64876;BME280;51369;49.862;9.908;2023-07-29T09:34:00;97735.63;;;22.00;91.08
64876;BME280;51369;49.862;9.908;2023-07-29T09:36:26;97728.94;;;22.13;91.78
64876;BME280;51369;49.862;9.908;2023-07-29T09:38:56;97725.13;;;22.23;91.45
64876;BME280;51369;49.862;9.908;2023-07-29T09:41:26;97728.97;;;22.30;89.45
64876;BME280;51369;49.862;9.908;2023-07-29T09:43:59;97735.75;;;22.36;88.43
64876;BME280;51369;49.862;9.908;2023-07-29T09:46:25;97743.84;;;22.37;86.79
64876;BME280;51369;49.862;9.908;2023-07-29T09:48:56;97742.25;;;22.35;85.24
64876;BME280;51369;49.862;9.908;2023-07-29T09:51:22;97730.72;;;22.31;85.26
64876;BME280;51369;49.862;9.908;2023-07-29T09:53:49;97728.56;;;22.25;84.95
64876;BME280;51369;49.862;9.908;2023-07-29T09:56:15;97732.81;;;22.20;84.77
64876;BME280;51369;49.862;9.908;2023-07-29T09:58:43;97727.47;;;22.18;85.09
64876;BME280;51369;49.862;9.908;2023-07-29T10:01:11;97727.41;;;22.28;86.26
64876;BME280;51369;49.862;9.908;2023-07-29T10:03:37;97734.09;;;22.43;86.34
64876;BME280;51369;49.862;9.908;2023-07-29T10:06:04;97741.78;;;22.57;84.47
64876;BME280;51369;49.862;9.908;2023-07-29T10:08:30;97735.00;;;22.79;84.67
64876;BME280;51369;49.862;9.908;2023-07-29T10:10:59;97735.59;;;23.09;84.34
64876;BME280;51369;49.862;9.908;2023-07-29T10:13:25;97736.88;;;23.40;83.84
64876;BME280;51369;49.862;9.908;2023-07-29T10:15:53;97739.34;;;23.69;82.35
64876;BME280;51369;49.862;9.908;2023-07-29T10:18:19;97748.50;;;24.04;82.49
64876;BME280;51369;49.862;9.908;2023-07-29T10:20:46;97753.63;;;24.32;82.43
64876;BME280;51369;49.862;9.908;2023-07-29T10:23:14;97745.75;;;24.54;81.22
64876;BME280;51369;49.862;9.908;2023-07-29T10:25:45;97736.31;;;24.81;80.77
64876;BME280;51369;49.862;9.908;2023-07-29T10:28:12;97732.06;;;25.11;80.39
64876;BME280;51369;49.862;9.908;2023-07-29T10:30:38;97714.78;;;25.33;79.11
64876;BME280;51369;49.862;9.908;2023-07-29T10:33:05;97725.47;;;25.52;77.19
64876;BME280;51369;49.862;9.908;2023-07-29T10:35:34;97720.97;;;25.76;76.05
64876;BME280;51369;49.862;9.908;2023-07-29T10:38:01;97716.41;;;25.99;75.74
64876;BME280;51369;49.862;9.908;2023-07-29T10:40:43;97724.06;;;26.20;74.57
64876;BME280;51369;49.862;9.908;2023-07-29T10:43:11;97719.81;;;26.48;74.46
64876;BME280;51369;49.862;9.908;2023-07-29T10:45:38;97706.00;;;26.71;73.52
64876;BME280;51369;49.862;9.908;2023-07-29T10:51:30;97706.97;;;27.09;70.94
64876;BME280;51369;49.862;9.908;2023-07-29T10:54:09;97702.63;;;27.30;69.91
64876;BME280;51369;49.862;9.908;2023-07-29T10:56:36;97710.88;;;27.38;70.33
64876;BME280;51369;49.862;9.908;2023-07-29T10:59:23;97703.69;;;27.29;69.53
64876;BME280;51369;49.862;9.908;2023-07-29T11:02:00;97705.69;;;27.20;66.73
64876;BME280;51369;49.862;9.908;2023-07-29T11:04:26;97698.84;;;27.08;67.39
64876;BME280;51369;49.862;9.908;2023-07-29T11:12:36;97694.31;;;26.61;69.13
64876;BME280;51369;49.862;9.908;2023-07-29T11:15:27;97708.66;;;26.65;69.03
64876;BME280;51369;49.862;9.908;2023-07-29T11:17:53;97707.91;;;26.71;68.09
64876;BME280;51369;49.862;9.908;2023-07-29T11:20:21;97703.59;;;26.68;68.29
64876;BME280;51369;49.862;9.908;2023-07-29T11:22:47;97700.59;;;26.78;69.81
64876;BME280;51369;49.862;9.908;2023-07-29T11:25:14;97695.97;;;26.93;69.31
64876;BME280;51369;49.862;9.908;2023-07-29T11:27:40;97704.19;;;27.09;68.28
64876;BME280;51369;49.862;9.908;2023-07-29T11:30:08;97705.56;;;27.13;67.51
64876;BME280;51369;49.862;9.908;2023-07-29T11:32:35;97688.28;;;27.26;67.31
64876;BME280;51369;49.862;9.908;2023-07-29T11:35:14;97689.28;;;27.33;68.06
64876;BME280;51369;49.862;9.908;2023-07-29T11:37:41;97700.28;;;27.41;67.19
64876;BME280;51369;49.862;9.908;2023-07-29T11:40:07;97702.56;;;27.38;67.22
64876;BME280;51369;49.862;9.908;2023-07-29T11:42:36;97689.88;;;27.43;66.57
64876;BME280;51369;49.862;9.908;2023-07-29T11:45:05;97689.59;;;27.53;65.89
64876;BME280;51369;49.862;9.908;2023-07-29T11:47:32;97688.66;;;27.75;66.30
64876;BME280;51369;49.862;9.908;2023-07-29T11:50:03;97688.38;;;28.00;65.78
64876;BME280;51369;49.862;9.908;2023-07-29T11:52:32;97680.91;;;28.15;64.97
64876;BME280;51369;49.862;9.908;2023-07-29T11:54:58;97674.78;;;28.34;64.75
64876;BME280;51369;49.862;9.908;2023-07-29T11:57:23;97672.06;;;28.56;64.42
64876;BME280;51369;49.862;9.908;2023-07-29T11:59:49;97671.03;;;28.78;62.96
64876;BME280;51369;49.862;9.908;2023-07-29T12:02:16;97666.94;;;28.95;61.88
64876;BME280;51369;49.862;9.908;2023-07-29T12:04:43;97662.91;;;28.98;60.55
64876;BME280;51369;49.862;9.908;2023-07-29T12:07:10;97659.69;;;28.94;60.82
64876;BME280;51369;49.862;9.908;2023-07-29T12:09:37;97653.47;;;28.92;61.37
64876;BME280;51369;49.862;9.908;2023-07-29T12:12:03;97644.72;;;28.95;60.40
64876;BME280;51369;49.862;9.908;2023-07-29T12:14:29;97645.84;;;29.01;58.99
64876;BME280;51369;49.862;9.908;2023-07-29T12:16:55;97638.69;;;29.13;60.55
64876;BME280;51369;49.862;9.908;2023-07-29T12:19:20;97631.00;;;29.15;59.83
64876;BME280;51369;49.862;9.908;2023-07-29T12:21:48;97637.94;;;29.26;59.60
64876;BME280;51369;49.862;9.908;2023-07-29T12:24:14;97631.81;;;29.37;57.99
64876;BME280;51369;49.862;9.908;2023-07-29T12:26:40;97632.78;;;29.44;58.34
64876;BME280;51369;49.862;9.908;2023-07-29T12:29:17;97628.72;;;29.46;55.64
64876;BME280;51369;49.862;9.908;2023-07-29T12:31:45;97633.94;;;29.63;57.45
64876;BME280;51369;49.862;9.908;2023-07-29T12:34:20;97631.06;;;29.84;57.90
64876;BME280;51369;49.862;9.908;2023-07-29T12:36:49;97628.66;;;30.09;58.07
64876;BME280;51369;49.862;9.908;2023-07-29T12:39:21;97634.97;;;30.31;58.01
64876;BME280;51369;49.862;9.908;2023-07-29T12:41:48;97628.41;;;30.52;57.74
64876;BME280;51369;49.862;9.908;2023-07-29T12:44:13;97638.34;;;30.67;55.79
64876;BME280;51369;49.862;9.908;2023-07-29T12:46:39;97633.22;;;30.84;56.65
64876;BME280;51369;49.862;9.908;2023-07-29T12:49:04;97621.69;;;31.00;56.02
64876;BME280;51369;49.862;9.908;2023-07-29T12:51:30;97623.59;;;31.00;54.02
64876;BME280;51369;49.862;9.908;2023-07-29T12:53:55;97636.69;;;30.99;54.12
64876;BME280;51369;49.862;9.908;2023-07-29T12:56:20;97633.25;;;30.91;54.10
64876;BME280;51369;49.862;9.908;2023-07-29T12:58:46;97617.56;;;30.70;55.56
64876;BME280;51369;49.862;9.908;2023-07-29T13:01:11;97618.56;;;30.56;55.90
64876;BME280;51369;49.862;9.908;2023-07-29T13:03:42;97626.06;;;30.55;55.60
64876;BME280;51369;49.862;9.908;2023-07-29T13:06:07;97638.56;;;30.66;56.14